createdAt,value
2019-01-23T00:01:39.087Z,20.23
2019-01-23T00:04:22.477Z,21.23
2019-01-23T00:07:07.073Z,22.98
2019-01-23T00:09:53.819Z,23.90
2019-01-23T00:15:27.949Z,19.37
2019-01-23T00:21:07.069Z,18.70
2019-01-23T00:23:43.426Z,20.05
2019-01-23T00:26:18.419Z,20.08
2019-01-23T00:29:00.841Z,21.17
2019-01-23T00:31:43.448Z,20.85
2019-01-23T00:34:20.895Z,21.27
2019-01-23T00:40:16.104Z,19.25
2019-01-23T00:45:48.296Z,22.90
2019-01-23T00:48:39.072Z,20.45
2019-01-23T00:51:29.055Z,25.90
2019-01-23T01:00:11.244Z,23.42
2019-01-23T01:06:00.281Z,24.32
2019-01-23T01:08:45.093Z,21.45
2019-01-23T01:14:30.528Z,24.07
2019-01-23T01:17:12.048Z,22.17
2019-01-23T01:19:51.564Z,22.32
2019-01-23T01:22:40.775Z,24.37
2019-01-23T01:25:26.490Z,23.07
2019-01-23T01:28:03.502Z,20.55
2019-01-23T01:30:43.988Z,20.57
2019-01-23T01:33:25.864Z,22.67
2019-01-23T01:36:05.502Z,18.92
2019-01-23T01:38:42.233Z,20.90
2019-01-23T01:41:19.025Z,24.30
2019-01-23T01:44:00.229Z,20.68
2019-01-23T01:46:39.100Z,19.70
2019-01-23T01:49:15.182Z,21.07
2019-01-23T01:51:50.548Z,19.10
2019-01-23T01:54:25.852Z,20.55
2019-01-23T01:57:05.761Z,21.40
2019-01-23T01:59:44.312Z,20.12
2019-01-23T02:02:19.686Z,21.48
2019-01-23T02:05:07.711Z,16.67
2019-01-23T02:07:42.829Z,19.70
2019-01-23T02:10:19.734Z,20.80
2019-01-23T02:12:54.948Z,20.85
2019-01-23T02:15:31.519Z,18.48
2019-01-23T02:18:07.012Z,17.80
2019-01-23T02:20:46.345Z,20.10
2019-01-23T02:23:22.531Z,23.98
2019-01-23T02:25:59.218Z,21.05
2019-01-23T02:28:34.454Z,23.35
2019-01-23T02:31:14.407Z,19.87
2019-01-23T02:33:49.964Z,17.77
2019-01-23T02:36:26.379Z,23.83
2019-01-23T02:39:05.238Z,21.90
2019-01-23T02:41:41.909Z,22.02
2019-01-23T02:44:18.483Z,19.05
2019-01-23T02:46:53.937Z,19.20
2019-01-23T02:49:29.312Z,18.85
2019-01-23T02:52:04.278Z,21.25
2019-01-23T02:54:40.506Z,20.37
2019-01-23T02:57:16.209Z,19.05
2019-01-23T02:59:51.388Z,20.92
2019-01-23T03:02:27.126Z,18.57
2019-01-23T03:05:04.498Z,18.37
2019-01-23T03:07:44.103Z,18.75
2019-01-23T03:10:31.008Z,20.95
2019-01-23T03:13:09.886Z,21.55
2019-01-23T03:15:45.874Z,16.65
2019-01-23T03:18:33.011Z,22.22
2019-01-23T03:21:08.158Z,19.27
2019-01-23T03:23:45.679Z,21.48
2019-01-23T03:28:57.155Z,20.72
2019-01-23T03:34:08.153Z,20.12
2019-01-23T03:36:49.940Z,21.57
2019-01-23T03:39:26.393Z,20.25
2019-01-23T03:42:02.404Z,20.80
2019-01-23T03:44:38.077Z,20.72
2019-01-23T03:47:14.109Z,21.82
2019-01-23T03:49:50.757Z,20.80
2019-01-23T03:52:25.871Z,17.50
2019-01-23T03:55:04.064Z,18.20
2019-01-23T03:57:39.113Z,23.47
2019-01-23T04:00:15.207Z,21.40
2019-01-23T04:02:55.792Z,18.20
2019-01-23T04:05:34.639Z,23.07
2019-01-23T04:08:13.102Z,21.50
2019-01-23T04:10:53.606Z,21.87
2019-01-23T04:13:30.581Z,18.75
2019-01-23T04:16:07.298Z,19.60
2019-01-23T04:18:46.857Z,21.05
2019-01-23T04:21:24.871Z,21.73
2019-01-23T04:24:00.346Z,20.15
2019-01-23T04:26:36.000Z,21.62
2019-01-23T04:29:13.467Z,22.58
2019-01-23T04:31:49.599Z,20.52
2019-01-23T04:34:36.984Z,20.15
2019-01-23T04:37:12.507Z,19.15
2019-01-23T04:39:48.537Z,20.02
2019-01-23T04:42:24.901Z,20.43
2019-01-23T04:45:00.202Z,21.60
2019-01-23T04:47:35.915Z,21.90
2019-01-23T04:50:11.287Z,21.00
2019-01-23T04:52:55.344Z,20.95
2019-01-23T04:55:32.086Z,21.48
2019-01-23T04:58:07.562Z,21.00
2019-01-23T05:00:42.737Z,20.92
2019-01-23T05:03:18.318Z,19.65
2019-01-23T05:05:55.375Z,20.25
2019-01-23T05:08:30.706Z,20.80
2019-01-23T05:11:05.626Z,20.85
2019-01-23T05:13:41.393Z,20.30
2019-01-23T05:22:25.956Z,20.35
2019-01-23T05:25:01.752Z,20.55
2019-01-23T05:27:37.363Z,21.70
2019-01-23T05:30:15.263Z,19.82
2019-01-23T05:32:48.410Z,19.77
2019-01-23T05:35:25.641Z,17.65
2019-01-23T05:38:06.770Z,23.80
2019-01-23T05:40:42.483Z,20.32
2019-01-23T05:43:17.552Z,17.60
2019-01-23T05:45:54.177Z,24.80
2019-01-23T05:48:28.777Z,18.60
2019-01-23T05:51:05.906Z,22.90
2019-01-23T05:53:41.367Z,23.35
2019-01-23T05:56:18.522Z,20.10
2019-01-23T05:58:53.168Z,18.92
2019-01-23T06:01:44.095Z,20.97
2019-01-23T06:04:20.425Z,22.17
2019-01-23T06:06:55.195Z,22.20
2019-01-23T06:09:30.703Z,19.95
2019-01-23T06:12:12.159Z,20.88
2019-01-23T06:14:53.498Z,22.15
2019-01-23T06:17:30.964Z,30.35
2019-01-23T06:20:08.486Z,22.27
2019-01-23T06:22:44.187Z,21.55
2019-01-23T06:25:22.431Z,24.12
2019-01-23T06:28:03.619Z,20.72
2019-01-23T06:30:40.935Z,21.80
2019-01-23T06:33:17.495Z,22.62
2019-01-23T06:35:55.345Z,26.35
2019-01-23T06:38:32.197Z,22.02
2019-01-23T06:41:07.506Z,23.75
2019-01-23T06:43:43.291Z,19.57
2019-01-23T06:46:22.305Z,25.45
2019-01-23T06:48:59.302Z,17.82
2019-01-23T06:51:40.206Z,25.23
2019-01-23T06:54:18.726Z,24.82
2019-01-23T06:56:56.661Z,27.58
2019-01-23T06:59:34.260Z,18.07
2019-01-23T07:02:11.812Z,22.48
2019-01-23T07:04:48.968Z,25.30
2019-01-23T07:07:27.708Z,21.27
2019-01-23T07:10:02.532Z,23.57
2019-01-23T07:12:40.188Z,25.72
2019-01-23T07:15:22.645Z,19.52
2019-01-23T07:18:02.552Z,17.40
2019-01-23T07:23:32.405Z,20.48
2019-01-23T07:26:07.992Z,22.62
2019-01-23T07:28:49.126Z,19.20
2019-01-23T07:31:25.897Z,20.55
2019-01-23T07:34:03.408Z,28.87
2019-01-23T07:36:41.020Z,20.37
2019-01-23T07:46:53.549Z,24.82
2019-01-23T07:49:29.447Z,23.50
2019-01-23T07:52:05.060Z,25.20
2019-01-23T07:54:40.389Z,23.85
2019-01-23T07:57:17.735Z,24.67
2019-01-23T08:00:06.144Z,27.32
2019-01-23T08:02:42.018Z,24.43
2019-01-23T08:05:21.271Z,23.47
2019-01-23T08:08:01.148Z,20.65
2019-01-23T08:10:35.919Z,23.00
2019-01-23T08:13:11.011Z,22.35
2019-01-23T08:15:46.734Z,30.32
2019-01-23T08:18:24.929Z,27.20
2019-01-23T08:21:01.890Z,25.02
2019-01-23T08:23:37.302Z,28.77
2019-01-23T08:26:15.358Z,30.32
2019-01-23T08:28:50.889Z,29.75
2019-01-23T08:31:27.565Z,28.23
2019-01-23T08:34:06.203Z,30.12
2019-01-23T08:36:45.570Z,27.58
2019-01-23T08:39:21.163Z,28.85
2019-01-23T08:41:59.710Z,28.73
2019-01-23T08:44:40.907Z,28.60
2019-01-23T08:47:16.900Z,31.45
2019-01-23T08:49:55.517Z,26.23
2019-01-23T08:52:35.048Z,30.27
2019-01-23T08:55:11.973Z,25.20
2019-01-23T08:57:47.100Z,27.80
2019-01-23T09:00:23.183Z,29.63
2019-01-23T09:03:01.238Z,27.55
2019-01-23T09:05:38.385Z,26.87
2019-01-23T09:08:13.920Z,26.40
2019-01-23T09:10:51.053Z,23.12
2019-01-23T09:13:25.951Z,28.00
2019-01-23T09:16:02.439Z,27.70
2019-01-23T09:18:37.362Z,23.07
2019-01-23T09:21:15.810Z,26.75
2019-01-23T09:23:51.258Z,28.90
2019-01-23T09:26:29.177Z,27.90
2019-01-23T09:29:08.562Z,27.65
2019-01-23T09:31:53.578Z,30.35
2019-01-23T09:34:38.381Z,29.90
2019-01-23T09:37:20.904Z,28.65
2019-01-23T09:40:01.874Z,29.70
2019-01-23T09:42:45.376Z,32.45
2019-01-23T09:45:34.518Z,29.42
2019-01-23T09:48:17.588Z,33.28
2019-01-23T09:50:59.516Z,29.75
2019-01-23T09:53:40.972Z,31.07
2019-01-23T09:56:16.669Z,31.68
2019-01-23T09:58:53.944Z,30.60
2019-01-23T10:01:29.379Z,30.35
2019-01-23T10:04:09.454Z,25.57
2019-01-23T10:06:52.270Z,26.60
2019-01-23T10:09:28.166Z,27.45
2019-01-23T10:12:19.365Z,27.80
2019-01-23T10:15:02.988Z,23.18
2019-01-23T10:17:39.483Z,24.65
2019-01-23T10:20:20.383Z,28.27
2019-01-23T10:26:01.708Z,26.02
2019-01-23T10:28:40.553Z,26.25
2019-01-23T10:31:34.278Z,25.88
2019-01-23T10:34:19.188Z,24.82
2019-01-23T10:36:56.483Z,25.10
2019-01-23T10:39:34.031Z,28.25
2019-01-23T10:42:16.982Z,24.02
2019-01-23T10:44:56.013Z,24.25
2019-01-23T10:47:45.674Z,20.88
2019-01-23T10:50:39.778Z,23.85
2019-01-23T10:53:27.815Z,26.73
2019-01-23T11:05:24.265Z,23.80
2019-01-23T11:08:00.974Z,24.40
2019-01-23T11:13:45.874Z,22.62
2019-01-23T11:16:27.161Z,24.85
2019-01-23T11:19:07.211Z,27.35
2019-01-23T11:21:53.896Z,23.02
2019-01-23T11:24:31.076Z,23.85
2019-01-23T11:27:09.348Z,25.20
2019-01-23T11:29:52.638Z,23.75
2019-01-23T11:32:33.355Z,25.25
2019-01-23T11:35:21.998Z,27.00
2019-01-23T11:38:09.932Z,29.95
2019-01-23T11:40:58.432Z,27.65
2019-01-23T11:43:47.665Z,28.20
2019-01-23T15:04:42.604Z,30.57
2019-01-23T15:56:22.086Z,31.87
2019-01-23T17:33:22.677Z,26.97
2019-01-23T17:39:30.579Z,23.92
2019-01-23T17:54:39.150Z,17.60
2019-01-23T17:57:19.150Z,18.77
2019-01-23T18:54:43.729Z,27.00
2019-01-23T18:57:23.627Z,28.30
2019-01-23T19:45:48.018Z,28.42
2019-01-23T19:48:22.758Z,32.53
2019-01-23T19:51:04.002Z,30.70
2019-01-23T19:53:41.655Z,29.90
2019-01-23T20:05:53.932Z,34.20
2019-01-23T20:08:45.602Z,37.23
